Time;durP1;ratioP1;P1;durP2;ratioP2;P2;SDS_P1;SDS_P2;PMS_P1;PMS_P2;Temp;Humidity;BMP_temperature;BMP_pressure;BME280_temperature;BME280_humidity;BME280_pressure;Samples;Min_cycle;Max_cycle;Signal;HPM_P1;HPM_P2
2022/05/15 00:02:13;;;;;;;49.53;13.87;;;;;;;;;;5003163;28;20271;-47
2022/05/15 00:04:39;;;;;;;38.42;11.52;;;;;;;;;;5007527;28;20248;-47
2022/05/15 00:07:06;;;;;;;59.60;15.10;;;;;;;;;;5001644;28;20228;-47
2022/05/15 00:09:32;;;;;;;67.57;16.13;;;;;;;;;;4987303;28;20690;-47
2022/05/15 00:11:58;;;;;;;51.53;13.67;;;;;;;;;;4985811;28;20379;-47
2022/05/15 00:14:24;;;;;;;52.37;13.50;;;;;;;;;;4987672;28;20268;-47
2022/05/15 00:16:50;;;;;;;49.05;13.20;;;;;;;;;;4986848;28;20239;-47
2022/05/15 00:19:16;;;;;;;47.20;12.65;;;;;;;;;;4987360;28;20593;-47
2022/05/15 00:21:42;;;;;;;64.30;15.77;;;;;;;;;;4988370;28;20263;-47
2022/05/15 00:24:08;;;;;;;46.30;12.63;;;;;;;;;;4988536;28;20213;-47
2022/05/15 00:26:34;;;;;;;56.07;13.93;;;;;;;;;;4988616;28;20217;-48
2022/05/15 00:29:00;;;;;;;58.50;14.43;;;;;;;;;;4988314;28;20298;-47
2022/05/15 00:31:27;;;;;;;48.80;12.83;;;;;;;;;;4987034;28;20217;-47
2022/05/15 00:33:53;;;;;;;48.27;13.07;;;;;;;;;;4989504;28;20220;-48
2022/05/15 00:36:19;;;;;;;40.47;11.57;;;;;;;;;;4987749;28;20268;-47
2022/05/15 00:38:45;;;;;;;49.03;12.90;;;;;;;;;;4989173;28;20627;-47
2022/05/15 00:41:12;;;;;;;49.80;13.07;;;;;;;;;;4987087;28;20182;-48
2022/05/15 00:43:38;;;;;;;32.50;10.60;;;;;;;;;;4988552;28;20251;-47
2022/05/15 00:46:05;;;;;;;41.37;12.13;;;;;;;;;;4986787;28;20221;-47
2022/05/15 00:48:31;;;;;;;45.33;12.10;;;;;;;;;;4987768;28;20260;-47
2022/05/15 00:50:57;;;;;;;53.57;13.53;;;;;;;;;;4987433;28;20646;-46
2022/05/15 00:53:23;;;;;;;60.03;15.30;;;;;;;;;;4985791;28;20173;-47
2022/05/15 00:55:50;;;;;;;62.53;15.23;;;;;;;;;;4986871;28;20221;-47
2022/05/15 00:58:17;;;;;;;57.60;14.77;;;;;;;;;;5002197;28;20223;-48
2022/05/15 01:00:44;;;;;;;60.83;15.63;;;;;;;;;;5007413;28;20209;-47
2022/05/15 01:03:12;;;;;;;59.30;15.80;;;;;;;;;;5005444;28;20221;-47
2022/05/15 01:05:40;;;;;;;50.17;13.47;;;;;;;;;;5006234;28;20173;-47
2022/05/15 01:08:06;;;;;;;53.30;14.10;;;;;;;;;;5007712;28;20208;-47
2022/05/15 01:10:34;;;;;;;95.70;21.10;;;;;;;;;;5005790;28;20286;-47
2022/05/15 01:13:00;;;;;;;49.47;13.10;;;;;;;;;;5006352;28;20224;-47
2022/05/15 01:15:27;;;;;;;71.28;17.63;;;;;;;;;;5005946;28;20669;-47
2022/05/15 01:17:53;;;;;;;56.77;14.57;;;;;;;;;;5005326;28;20216;-48
2022/05/15 01:20:21;;;;;;;64.30;15.73;;;;;;;;;;5007338;28;20204;-47
2022/05/15 01:22:47;;;;;;;59.07;14.37;;;;;;;;;;5006788;28;20213;-47
2022/05/15 01:25:14;;;;;;;66.57;15.60;;;;;;;;;;5006428;28;20220;-47
2022/05/15 01:27:43;;;;;;;78.40;18.10;;;;;;;;;;5004282;28;20257;-47
2022/05/15 01:30:09;;;;;;;58.77;14.47;;;;;;;;;;5006541;28;20542;-47
2022/05/15 01:32:35;;;;;;;40.97;11.90;;;;;;;;;;5007339;28;20276;-47
2022/05/15 01:35:01;;;;;;;68.67;15.93;;;;;;;;;;5008044;28;20181;-47
2022/05/15 01:37:27;;;;;;;49.60;13.43;;;;;;;;;;5005450;28;20712;-47
2022/05/15 01:39:53;;;;;;;51.17;12.97;;;;;;;;;;5004964;28;20227;-47
2022/05/15 01:42:19;;;;;;;55.90;13.97;;;;;;;;;;5006437;28;20212;-47
2022/05/15 01:44:45;;;;;;;59.47;14.67;;;;;;;;;;5006895;28;20542;-47
2022/05/15 01:47:11;;;;;;;49.40;13.27;;;;;;;;;;5006803;28;20260;-47
2022/05/15 01:49:38;;;;;;;53.63;14.13;;;;;;;;;;5006644;28;20678;-47
2022/05/15 01:52:04;;;;;;;68.53;16.47;;;;;;;;;;5003606;28;20279;-47
2022/05/15 01:54:30;;;;;;;56.43;13.90;;;;;;;;;;5008087;28;20237;-47
2022/05/15 01:56:56;;;;;;;69.20;15.97;;;;;;;;;;5005980;28;20213;-47
2022/05/15 01:59:22;;;;;;;52.03;13.13;;;;;;;;;;5005345;28;20472;-47
2022/05/15 02:01:48;;;;;;;69.37;16.60;;;;;;;;;;5006504;28;20719;-47
2022/05/15 02:04:14;;;;;;;22.87;8.93;;;;;;;;;;5007715;28;20261;-47
2022/05/15 02:06:40;;;;;;;41.37;11.90;;;;;;;;;;5008169;28;20308;-47
2022/05/15 02:09:06;;;;;;;41.87;11.33;;;;;;;;;;5008466;28;20217;-47
2022/05/15 02:11:34;;;;;;;24.93;8.53;;;;;;;;;;5008060;28;20176;-47
2022/05/15 02:14:00;;;;;;;67.70;15.60;;;;;;;;;;5007374;28;20192;-47
2022/05/15 02:16:26;;;;;;;49.80;12.53;;;;;;;;;;5007673;28;20231;-47
2022/05/15 02:18:52;;;;;;;51.30;12.93;;;;;;;;;;5009280;28;20277;-47
2022/05/15 02:21:18;;;;;;;56.53;14.43;;;;;;;;;;5010433;28;20303;-47
2022/05/15 02:23:44;;;;;;;65.00;16.17;;;;;;;;;;5010681;28;20312;-47
2022/05/15 02:26:10;;;;;;;47.73;12.70;;;;;;;;;;5009604;28;20367;-47
2022/05/15 02:28:37;;;;;;;46.47;12.43;;;;;;;;;;5009228;28;20399;-47
2022/05/15 02:31:03;;;;;;;56.50;14.73;;;;;;;;;;5008897;28;20224;-47
2022/05/15 02:33:29;;;;;;;35.20;10.40;;;;;;;;;;5009384;28;20217;-47
2022/05/15 02:35:55;;;;;;;52.10;13.43;;;;;;;;;;5009692;28;20219;-47
2022/05/15 02:38:21;;;;;;;47.63;12.87;;;;;;;;;;5010838;28;20307;-47
2022/05/15 02:40:48;;;;;;;49.97;13.53;;;;;;;;;;5008286;28;20248;-47
2022/05/15 02:43:14;;;;;;;52.77;13.50;;;;;;;;;;5010546;28;20221;-47
2022/05/15 02:45:40;;;;;;;57.30;14.37;;;;;;;;;;5009123;28;20664;-47
2022/05/15 02:51:03;;;;;;;46.40;12.97;;;;;;;;;;5009768;28;20693;-47
2022/05/15 02:51:04;;;;;;;63.80;16.07;;;;;;;;;;5009028;28;20677;-47
2022/05/15 02:53:32;;;;;;;60.03;14.70;;;;;;;;;;5008658;28;20524;-47
2022/05/15 02:55:58;;;;;;;61.43;14.97;;;;;;;;;;5009079;28;20176;-47
2022/05/15 02:58:24;;;;;;;27.87;9.47;;;;;;;;;;5009385;28;20219;-47
2022/05/15 03:00:50;;;;;;;57.67;14.30;;;;;;;;;;5009631;28;20224;-47
2022/05/15 03:03:15;;;;;;;58.10;14.53;;;;;;;;;;5009475;28;20208;-47
2022/05/15 03:05:41;;;;;;;54.20;14.80;;;;;;;;;;5009814;28;20180;-47
2022/05/15 03:08:08;;;;;;;62.67;15.37;;;;;;;;;;5009680;28;20574;-47
2022/05/15 03:10:34;;;;;;;59.10;14.83;;;;;;;;;;5008728;28;20312;-47
2022/05/15 03:13:00;;;;;;;65.57;15.77;;;;;;;;;;5008837;28;20246;-47
2022/05/15 03:15:25;;;;;;;44.63;12.07;;;;;;;;;;5007740;28;20836;-47
2022/05/15 03:17:51;;;;;;;61.97;15.40;;;;;;;;;;5008871;28;20275;-47
2022/05/15 03:20:18;;;;;;;45.27;12.30;;;;;;;;;;5011077;28;20181;-47
2022/05/15 03:22:44;;;;;;;41.17;12.03;;;;;;;;;;4992007;28;20224;-47
2022/05/15 03:25:10;;;;;;;46.37;12.77;;;;;;;;;;4990925;28;20755;-47
2022/05/15 03:27:36;;;;;;;43.60;12.60;;;;;;;;;;4988772;28;20222;-47
2022/05/15 03:30:03;;;;;;;68.73;17.30;;;;;;;;;;4989714;28;20324;-47
2022/05/15 03:32:29;;;;;;;48.23;12.77;;;;;;;;;;4989277;28;20668;-47
2022/05/15 03:34:55;;;;;;;59.13;15.07;;;;;;;;;;4988876;28;20243;-47
2022/05/15 03:37:21;;;;;;;26.23;9.07;;;;;;;;;;4990214;28;20245;-47
2022/05/15 03:39:47;;;;;;;44.37;12.40;;;;;;;;;;4989423;28;20248;-47
2022/05/15 03:42:13;;;;;;;62.00;16.07;;;;;;;;;;4989633;28;20209;-47
2022/05/15 03:44:38;;;;;;;80.87;19.57;;;;;;;;;;4988639;28;20185;-47
2022/05/15 03:47:07;;;;;;;59.33;14.77;;;;;;;;;;4989012;28;20198;-47
2022/05/15 03:49:33;;;;;;;53.77;13.87;;;;;;;;;;4988841;28;20566;-47
2022/05/15 03:51:59;;;;;;;53.83;13.83;;;;;;;;;;4989896;28;20228;-47
2022/05/15 03:54:25;;;;;;;30.47;9.80;;;;;;;;;;4989501;28;20547;-47
2022/05/15 03:56:51;;;;;;;66.40;15.63;;;;;;;;;;4989248;28;20210;-47
2022/05/15 03:59:19;;;;;;;46.93;12.57;;;;;;;;;;4990991;28;20178;-47
2022/05/15 04:01:45;;;;;;;55.37;14.17;;;;;;;;;;4989395;28;20633;-47
2022/05/15 04:04:11;;;;;;;38.07;10.90;;;;;;;;;;4986743;28;20304;-47
2022/05/15 04:06:37;;;;;;;51.33;14.07;;;;;;;;;;4988724;28;20228;-47
2022/05/15 04:09:03;;;;;;;38.93;11.03;;;;;;;;;;4989976;28;20237;-47
2022/05/15 04:11:29;;;;;;;64.90;15.67;;;;;;;;;;4973095;28;20276;-48
2022/05/15 04:13:55;;;;;;;58.10;14.27;;;;;;;;;;4978372;28;20265;-48
2022/05/15 04:16:21;;;;;;;112.60;23.77;;;;;;;;;;4973035;28;20217;-48
2022/05/15 04:18:47;;;;;;;110.33;23.30;;;;;;;;;;4971682;28;20230;-47
2022/05/15 04:21:13;;;;;;;73.10;17.63;;;;;;;;;;4973065;28;20280;-47
2022/05/15 04:23:39;;;;;;;107.03;23.43;;;;;;;;;;4972125;28;20178;-48
2022/05/15 04:26:05;;;;;;;86.13;19.47;;;;;;;;;;4973877;28;20420;-48
2022/05/15 04:28:31;;;;;;;77.43;17.60;;;;;;;;;;4972925;28;20283;-48
2022/05/15 04:30:57;;;;;;;75.97;17.83;;;;;;;;;;4971460;28;20658;-48
2022/05/15 04:33:23;;;;;;;106.53;24.03;;;;;;;;;;4973699;28;20696;-48
2022/05/15 04:35:49;;;;;;;125.23;27.47;;;;;;;;;;4976314;28;21931;-47
2022/05/15 04:38:15;;;;;;;81.77;19.30;;;;;;;;;;4975286;28;20213;-48
2022/05/15 04:40:41;;;;;;;120.27;26.47;;;;;;;;;;4972930;28;20513;-48
2022/05/15 04:43:07;;;;;;;92.90;20.80;;;;;;;;;;4964689;28;20217;-48
2022/05/15 04:45:33;;;;;;;106.90;23.73;;;;;;;;;;4964478;28;20285;-48
2022/05/15 04:47:59;;;;;;;85.43;20.30;;;;;;;;;;4974723;28;20273;-48
2022/05/15 04:50:25;;;;;;;135.07;29.20;;;;;;;;;;4971178;28;20189;-48
2022/05/15 04:52:51;;;;;;;82.77;19.37;;;;;;;;;;4974858;28;20319;-47
2022/05/15 04:55:17;;;;;;;94.37;21.37;;;;;;;;;;4970265;28;20397;-47
2022/05/15 04:57:43;;;;;;;119.90;25.70;;;;;;;;;;4971174;28;20708;-47
2022/05/15 05:00:13;;;;;;;76.37;17.67;;;;;;;;;;4975960;28;20889;-48
2022/05/15 05:02:39;;;;;;;118.23;25.70;;;;;;;;;;4970307;28;20638;-48
2022/05/15 05:05:05;;;;;;;59.83;15.67;;;;;;;;;;4972118;28;20193;-48
2022/05/15 05:07:31;;;;;;;121.77;27.23;;;;;;;;;;4974188;28;20635;-47
2022/05/15 05:09:57;;;;;;;94.03;22.03;;;;;;;;;;4968951;28;20267;-48
2022/05/15 05:12:23;;;;;;;82.87;19.83;;;;;;;;;;4969908;28;20304;-47
2022/05/15 05:14:49;;;;;;;111.77;24.97;;;;;;;;;;4970000;28;24377;-48
2022/05/15 05:17:16;;;;;;;152.37;32.60;;;;;;;;;;4966812;28;20582;-48
2022/05/15 05:19:42;;;;;;;118.63;26.07;;;;;;;;;;4965755;28;20821;-48
2022/05/15 05:22:08;;;;;;;107.50;24.23;;;;;;;;;;4974336;28;20283;-48
2022/05/15 05:24:33;;;;;;;134.13;29.20;;;;;;;;;;4972746;28;20264;-48
2022/05/15 05:27:01;;;;;;;73.65;18.35;;;;;;;;;;4973801;28;20725;-48
2022/05/15 05:29:27;;;;;;;93.77;22.17;;;;;;;;;;4977994;28;20243;-48
2022/05/15 05:31:53;;;;;;;104.87;23.23;;;;;;;;;;4971915;28;20229;-48
2022/05/15 05:34:19;;;;;;;58.63;15.27;;;;;;;;;;4979554;28;20710;-48
2022/05/15 05:36:45;;;;;;;96.50;21.63;;;;;;;;;;4978500;28;20228;-47
2022/05/15 05:39:11;;;;;;;71.55;16.63;;;;;;;;;;4973385;28;20221;-48
2022/05/15 05:41:37;;;;;;;102.93;23.10;;;;;;;;;;4971994;28;20227;-48
2022/05/15 05:44:03;;;;;;;98.33;22.93;;;;;;;;;;4970259;28;20240;-47
2022/05/15 05:46:29;;;;;;;65.25;16.85;;;;;;;;;;4973971;28;20295;-48
2022/05/15 05:48:56;;;;;;;77.43;19.13;;;;;;;;;;4972612;28;20221;-48
2022/05/15 05:51:21;;;;;;;81.33;19.50;;;;;;;;;;4966130;28;20260;-49
2022/05/15 05:53:48;;;;;;;76.23;19.30;;;;;;;;;;4982375;28;20662;-49
2022/05/15 05:56:14;;;;;;;58.25;15.32;;;;;;;;;;4990989;28;20272;-48
2022/05/15 05:58:41;;;;;;;73.93;18.17;;;;;;;;;;4988836;28;20213;-48
2022/05/15 06:01:07;;;;;;;75.55;18.75;;;;;;;;;;4986073;28;20578;-48
2022/05/15 06:06:18;;;;;;;72.90;17.77;;;;;;;;;;4981786;28;20316;-48
2022/05/15 06:08:44;;;;;;;106.27;23.73;;;;;;;;;;4978047;28;20190;-48
2022/05/15 06:11:11;;;;;;;103.85;23.83;;;;;;;;;;4982465;28;20270;-49
2022/05/15 06:13:38;;;;;;;55.97;15.35;;;;;;;;;;4985474;28;20304;-50
2022/05/15 06:16:04;;;;;;;89.50;20.97;;;;;;;;;;4986731;28;20213;-50
2022/05/15 06:18:30;;;;;;;99.20;22.70;;;;;;;;;;4982299;28;20387;-49
2022/05/15 06:20:56;;;;;;;174.02;36.08;;;;;;;;;;4962964;28;20707;-47
2022/05/15 06:23:22;;;;;;;106.00;24.73;;;;;;;;;;4975634;28;20212;-49
2022/05/15 06:25:48;;;;;;;116.22;25.42;;;;;;;;;;4975231;28;20627;-48
2022/05/15 06:28:14;;;;;;;112.25;26.83;;;;;;;;;;4971845;28;20237;-49
2022/05/15 06:30:40;;;;;;;99.03;22.00;;;;;;;;;;4969014;28;20232;-49
2022/05/15 06:33:06;;;;;;;127.65;27.98;;;;;;;;;;4973323;28;20235;-49
2022/05/15 06:35:33;;;;;;;181.68;37.30;;;;;;;;;;4962821;28;21197;-49
2022/05/15 06:38:05;;;;;;;149.82;31.33;;;;;;;;;;4964070;28;20230;-49
2022/05/15 06:40:31;;;;;;;145.02;30.45;;;;;;;;;;4970512;28;20231;-49
2022/05/15 06:42:58;;;;;;;113.93;26.02;;;;;;;;;;4976732;28;20206;-49
2022/05/15 06:45:24;;;;;;;130.45;28.85;;;;;;;;;;4969166;28;20226;-48
2022/05/15 06:47:50;;;;;;;124.72;27.60;;;;;;;;;;4971839;28;20245;-49
2022/05/15 06:50:16;;;;;;;51.38;14.43;;;;;;;;;;4985167;28;20192;-50
2022/05/15 06:52:42;;;;;;;98.93;24.40;;;;;;;;;;4980555;28;20302;-50
2022/05/15 06:55:11;;;;;;;48.97;14.18;;;;;;;;;;4985934;28;20244;-50
2022/05/15 06:57:37;;;;;;;65.78;18.55;;;;;;;;;;4988971;28;20221;-50
2022/05/15 07:00:07;;;;;;;48.42;15.43;;;;;;;;;;4983111;28;20618;-50
2022/05/15 07:02:33;;;;;;;87.95;21.83;;;;;;;;;;4972661;28;20378;-48
2022/05/15 07:04:59;;;;;;;96.53;23.60;;;;;;;;;;4971610;28;20284;-48
2022/05/15 07:07:26;;;;;;;124.25;30.38;;;;;;;;;;4968537;28;20293;-48
2022/05/15 07:09:52;;;;;;;161.27;38.80;;;;;;;;;;4963553;28;20217;-48
2022/05/15 07:12:18;;;;;;;98.07;24.00;;;;;;;;;;4971187;28;20754;-49
2022/05/15 07:14:43;;;;;;;81.00;20.33;;;;;;;;;;4984989;28;20201;-49
2022/05/15 07:17:10;;;;;;;67.63;17.58;;;;;;;;;;4985141;28;20289;-49
2022/05/15 07:19:36;;;;;;;72.47;19.60;;;;;;;;;;4983720;28;20243;-48
2022/05/15 07:22:01;;;;;;;109.40;26.45;;;;;;;;;;4981582;28;20225;-48
2022/05/15 07:24:27;;;;;;;145.40;32.22;;;;;;;;;;4966002;28;20400;-47
2022/05/15 07:26:54;;;;;;;72.72;19.55;;;;;;;;;;4973344;28;20919;-48
2022/05/15 07:29:20;;;;;;;89.60;22.58;;;;;;;;;;4965798;28;20519;-47
2022/05/15 07:31:51;;;;;;;139.52;32.80;;;;;;;;;;4972176;28;20536;-47
2022/05/15 07:34:17;;;;;;;133.90;31.05;;;;;;;;;;4969677;28;20989;-47
2022/05/15 07:36:43;;;;;;;111.28;27.15;;;;;;;;;;4952448;28;20706;-47
2022/05/15 07:39:09;;;;;;;161.73;37.42;;;;;;;;;;4959907;28;20217;-47
2022/05/15 07:41:35;;;;;;;96.35;24.00;;;;;;;;;;4975054;28;20484;-48
2022/05/15 07:44:01;;;;;;;106.32;25.27;;;;;;;;;;4968848;28;20692;-47
2022/05/15 07:46:27;;;;;;;132.30;30.13;;;;;;;;;;4968986;28;20278;-47
2022/05/15 07:48:54;;;;;;;104.88;24.88;;;;;;;;;;4968954;28;20245;-47
2022/05/15 07:51:20;;;;;;;82.13;20.85;;;;;;;;;;4972003;28;20233;-48
2022/05/15 07:53:47;;;;;;;132.68;30.55;;;;;;;;;;4973263;28;22552;-47
2022/05/15 07:56:13;;;;;;;122.32;28.92;;;;;;;;;;4963208;28;20272;-47
2022/05/15 07:58:40;;;;;;;137.35;32.72;;;;;;;;;;4975068;28;20729;-47
2022/05/15 08:01:07;;;;;;;86.32;21.95;;;;;;;;;;4975100;28;20214;-49
2022/05/15 08:03:37;;;;;;;84.93;21.85;;;;;;;;;;4978762;28;20213;-47
2022/05/15 08:08:48;;;;;;;99.28;24.92;;;;;;;;;;4979062;28;20534;-49
2022/05/15 08:11:16;;;;;;;75.95;19.30;;;;;;;;;;4979221;28;20206;-48
2022/05/15 08:13:43;;;;;;;89.93;22.55;;;;;;;;;;4984471;28;20214;-48
2022/05/15 08:16:10;;;;;;;54.53;16.20;;;;;;;;;;4984472;28;20626;-49
2022/05/15 08:24:06;;;;;;;88.28;21.65;;;;;;;;;;4976907;28;20549;-48
2022/05/15 08:26:32;;;;;;;58.72;17.60;;;;;;;;;;4987831;28;20290;-49
2022/05/15 08:28:58;;;;;;;74.07;20.73;;;;;;;;;;4987179;28;20268;-48
2022/05/15 08:31:25;;;;;;;59.60;17.35;;;;;;;;;;4975372;28;20210;-47
2022/05/15 08:33:51;;;;;;;68.85;19.58;;;;;;;;;;4995752;28;20594;-48
2022/05/15 08:36:18;;;;;;;79.82;21.17;;;;;;;;;;4983023;28;20299;-48
2022/05/15 08:38:44;;;;;;;60.38;17.42;;;;;;;;;;4986067;28;20547;-48
2022/05/15 08:41:16;;;;;;;70.90;19.63;;;;;;;;;;4986858;28;20170;-49
2022/05/15 08:43:44;;;;;;;51.60;16.48;;;;;;;;;;4987673;28;20221;-47
2022/05/15 08:46:25;;;;;;;113.22;26.45;;;;;;;;;;4979924;28;20271;-47
2022/05/15 08:48:52;;;;;;;55.15;17.05;;;;;;;;;;4980875;28;20228;-49
2022/05/15 08:51:18;;;;;;;97.00;25.08;;;;;;;;;;4980597;28;20323;-47
2022/05/15 08:53:45;;;;;;;93.38;24.48;;;;;;;;;;4982750;28;20356;-49
2022/05/15 08:56:13;;;;;;;64.20;18.15;;;;;;;;;;4974440;28;20419;-47
2022/05/15 08:58:53;;;;;;;109.45;27.38;;;;;;;;;;4980045;28;20287;-49
2022/05/15 09:01:21;;;;;;;128.43;30.80;;;;;;;;;;4976338;28;20217;-49
2022/05/15 09:03:48;;;;;;;110.15;28.30;;;;;;;;;;4976325;28;20224;-49
2022/05/15 09:06:34;;;;;;;85.82;24.00;;;;;;;;;;4980233;28;20637;-48
2022/05/15 09:09:01;;;;;;;97.68;27.05;;;;;;;;;;4978939;28;20280;-49
2022/05/15 09:11:41;;;;;;;121.32;29.92;;;;;;;;;;4974899;28;20197;-48
2022/05/15 09:14:12;;;;;;;97.80;26.15;;;;;;;;;;4975767;28;20209;-49
2022/05/15 09:16:41;;;;;;;130.85;34.03;;;;;;;;;;4980798;28;20517;-49
2022/05/15 09:19:08;;;;;;;85.18;23.95;;;;;;;;;;4978911;28;20316;-49
2022/05/15 09:21:34;;;;;;;78.47;22.98;;;;;;;;;;4984940;28;20209;-49
2022/05/15 09:24:08;;;;;;;118.13;28.20;;;;;;;;;;4978974;28;20229;-49
2022/05/15 09:26:44;;;;;;;80.22;23.30;;;;;;;;;;4981992;28;20228;-49
2022/05/15 09:29:18;;;;;;;78.38;24.00;;;;;;;;;;4979730;28;20205;-49
2022/05/15 09:31:44;;;;;;;57.75;18.80;;;;;;;;;;4985093;28;20304;-49
2022/05/15 09:34:29;;;;;;;73.80;22.38;;;;;;;;;;4981151;28;20757;-49
2022/05/15 09:38:26;;;;;;;51.67;17.00;;;;;;;;;;4985055;28;20311;-49
2022/05/15 09:39:46;;;;;;;77.00;21.55;;;;;;;;;;4980842;28;20229;-48
2022/05/15 09:45:05;;;;;;;83.20;24.15;;;;;;;;;;4974178;28;20228;-48
2022/05/15 09:47:33;;;;;;;102.47;27.70;;;;;;;;;;4978177;28;20590;-49
2022/05/15 09:49:59;;;;;;;62.38;18.58;;;;;;;;;;4976625;28;20224;-48
2022/05/15 09:52:36;;;;;;;72.78;21.55;;;;;;;;;;4979410;28;20630;-48
2022/05/15 09:55:08;;;;;;;68.85;20.55;;;;;;;;;;4979695;28;20308;-49
2022/05/15 09:57:35;;;;;;;99.28;28.27;;;;;;;;;;4979503;28;20297;-48
2022/05/15 10:00:05;;;;;;;51.67;15.80;;;;;;;;;;4979483;28;20226;-48
2022/05/15 10:02:40;;;;;;;146.15;40.15;;;;;;;;;;4975601;28;20246;-48
2022/05/15 10:05:11;;;;;;;55.00;17.15;;;;;;;;;;4976804;28;20206;-49
2022/05/15 10:07:44;;;;;;;88.22;25.00;;;;;;;;;;4979693;28;20675;-48
2022/05/15 10:10:31;;;;;;;92.22;26.77;;;;;;;;;;4977899;28;20293;-47
2022/05/15 10:13:00;;;;;;;78.75;23.65;;;;;;;;;;4978774;28;20217;-48
2022/05/15 10:15:30;;;;;;;79.22;23.35;;;;;;;;;;4980526;28;20267;-48
2022/05/15 10:17:58;;;;;;;59.08;19.35;;;;;;;;;;4980055;28;20225;-48
2022/05/15 10:20:26;;;;;;;82.90;24.55;;;;;;;;;;4981809;28;20204;-48
2022/05/15 10:22:58;;;;;;;71.28;21.45;;;;;;;;;;4975420;28;20308;-47
2022/05/15 10:25:33;;;;;;;196.13;53.67;;;;;;;;;;4965418;28;20222;-48
2022/05/15 10:28:07;;;;;;;183.23;50.88;;;;;;;;;;4960268;28;20228;-48
2022/05/15 10:30:36;;;;;;;101.80;30.20;;;;;;;;;;4967507;28;20222;-49
2022/05/15 10:33:07;;;;;;;84.15;26.20;;;;;;;;;;4978047;28;20213;-50
2022/05/15 10:35:51;;;;;;;63.35;21.50;;;;;;;;;;4983805;28;20201;-49
2022/05/15 10:38:21;;;;;;;104.63;31.25;;;;;;;;;;4980419;28;20225;-49
2022/05/15 10:40:54;;;;;;;76.85;24.73;;;;;;;;;;4984586;28;20843;-49
2022/05/15 10:43:41;;;;;;;82.40;26.13;;;;;;;;;;4984972;28;20213;-49
2022/05/15 10:46:26;;;;;;;73.15;24.38;;;;;;;;;;4982142;28;20651;-49
2022/05/15 10:48:59;;;;;;;58.28;21.88;;;;;;;;;;4984143;28;20233;-49
2022/05/15 10:51:34;;;;;;;64.82;24.08;;;;;;;;;;4984396;28;20236;-48
2022/05/15 10:57:24;;;;;;;85.63;29.85;;;;;;;;;;4987301;28;20255;-48
2022/05/15 10:59:54;;;;;;;74.45;28.25;;;;;;;;;;4986247;28;20663;-49
2022/05/15 11:02:20;;;;;;;86.55;32.92;;;;;;;;;;4987451;28;20170;-49
2022/05/15 11:04:55;;;;;;;72.05;28.50;;;;;;;;;;4987977;28;20220;-49
2022/05/15 11:07:25;;;;;;;99.18;34.25;;;;;;;;;;4987718;28;20304;-50
2022/05/15 11:09:50;;;;;;;55.67;24.02;;;;;;;;;;4989920;28;20693;-49
2022/05/15 11:12:24;;;;;;;81.32;33.45;;;;;;;;;;4989953;28;20212;-48
2022/05/15 11:15:04;;;;;;;63.17;29.10;;;;;;;;;;4986455;28;20221;-50
2022/05/15 11:17:39;;;;;;;56.10;27.20;;;;;;;;;;4980515;28;20701;-49
2022/05/15 11:20:13;;;;;;;65.43;28.75;;;;;;;;;;4983807;28;20681;-48
2022/05/15 11:22:49;;;;;;;94.25;37.30;;;;;;;;;;4986363;28;20716;-48
2022/05/15 11:25:21;;;;;;;90.00;36.72;;;;;;;;;;4983045;28;20209;-49
2022/05/15 11:27:53;;;;;;;65.68;31.55;;;;;;;;;;4986977;28;20225;-49
2022/05/15 11:30:33;;;;;;;64.30;31.23;;;;;;;;;;4987083;28;20210;-48
2022/05/15 11:33:03;;;;;;;73.53;35.35;;;;;;;;;;4985870;28;20224;-49
2022/05/15 11:35:40;;;;;;;58.45;32.47;;;;;;;;;;4988630;28;20260;-49
2022/05/15 11:38:09;;;;;;;76.68;39.78;;;;;;;;;;4983746;28;20252;-49
2022/05/15 11:40:37;;;;;;;67.93;37.13;;;;;;;;;;4988153;28;20210;-48
2022/05/15 11:43:29;;;;;;;71.93;40.72;;;;;;;;;;4986933;28;20312;-49
2022/05/15 11:45:58;;;;;;;45.67;31.65;;;;;;;;;;4982942;28;20213;-49
2022/05/15 11:48:27;;;;;;;65.72;43.65;;;;;;;;;;4987787;28;20570;-48
2022/05/15 11:51:02;;;;;;;67.07;42.10;;;;;;;;;;4988530;28;20217;-49
2022/05/15 11:53:33;;;;;;;105.68;52.10;;;;;;;;;;4980133;28;20300;-50
2022/05/15 11:56:18;;;;;;;56.13;40.03;;;;;;;;;;4983278;28;20757;-49
2022/05/15 11:58:44;;;;;;;79.22;52.30;;;;;;;;;;4984176;28;20243;-49
2022/05/15 12:01:25;;;;;;;72.40;56.28;;;;;;;;;;4983662;28;20316;-50
2022/05/15 12:03:53;;;;;;;103.15;75.80;;;;;;;;;;4985609;28;20585;-50
2022/05/15 12:06:23;;;;;;;111.38;80.30;;;;;;;;;;4981187;28;20228;-49
2022/05/15 12:08:51;;;;;;;114.22;98.82;;;;;;;;;;4982273;28;20296;-49
2022/05/15 12:11:34;;;;;;;109.28;95.00;;;;;;;;;;4984676;28;20186;-49
2022/05/15 12:14:20;;;;;;;114.85;104.15;;;;;;;;;;4987798;28;20263;-49
2022/05/15 12:16:58;;;;;;;123.43;110.45;;;;;;;;;;4985115;28;20300;-47
2022/05/15 12:19:26;;;;;;;128.55;116.63;;;;;;;;;;4987345;28;20213;-48
2022/05/15 12:21:53;;;;;;;132.25;118.82;;;;;;;;;;4986480;28;20233;-50
2022/05/15 12:24:28;;;;;;;142.60;127.10;;;;;;;;;;4986455;28;20213;-49
2022/05/15 12:27:08;;;;;;;152.00;137.18;;;;;;;;;;4985558;28;20220;-49
2022/05/15 12:29:42;;;;;;;143.38;129.63;;;;;;;;;;4985595;28;20261;-49
2022/05/15 12:32:17;;;;;;;170.75;151.68;;;;;;;;;;4986670;28;20206;-50
2022/05/15 12:34:46;;;;;;;168.25;149.75;;;;;;;;;;4985270;28;20271;-49
2022/05/15 12:37:13;;;;;;;170.55;152.13;;;;;;;;;;4986496;28;20213;-49
2022/05/15 12:39:43;;;;;;;181.85;162.10;;;;;;;;;;4987052;28;20221;-49
2022/05/15 12:42:13;;;;;;;207.52;184.43;;;;;;;;;;4986402;28;20213;-50
2022/05/15 12:44:39;;;;;;;216.40;183.85;;;;;;;;;;4982797;28;20170;-50
2022/05/15 12:47:09;;;;;;;200.57;178.65;;;;;;;;;;4985781;28;20291;-49
2022/05/15 12:49:36;;;;;;;167.00;150.02;;;;;;;;;;4984225;28;20217;-48
2022/05/15 12:52:08;;;;;;;148.82;135.73;;;;;;;;;;4992555;28;20685;-50
2022/05/15 12:54:34;;;;;;;158.05;143.52;;;;;;;;;;4986640;28;20216;-50
2022/05/15 12:57:01;;;;;;;168.20;152.05;;;;;;;;;;4986614;28;20222;-49
2022/05/15 12:59:28;;;;;;;180.23;162.57;;;;;;;;;;4987185;28;20252;-49
2022/05/15 13:01:54;;;;;;;183.25;163.80;;;;;;;;;;4986069;28;20575;-50
2022/05/15 13:04:23;;;;;;;194.40;173.82;;;;;;;;;;4985070;28;20323;-48
2022/05/15 13:06:52;;;;;;;204.20;183.20;;;;;;;;;;4986240;28;20256;-50
2022/05/15 13:09:28;;;;;;;186.52;168.63;;;;;;;;;;4985510;28;20214;-49
2022/05/15 13:11:56;;;;;;;201.10;179.45;;;;;;;;;;4992746;28;20477;-48
2022/05/15 13:14:41;;;;;;;181.45;163.27;;;;;;;;;;4978156;28;20603;-50
2022/05/15 13:17:10;;;;;;;193.02;172.55;;;;;;;;;;4984829;28;20241;-49
2022/05/15 13:19:44;;;;;;;191.85;171.43;;;;;;;;;;4982551;28;20213;-50
2022/05/15 13:22:31;;;;;;;206.55;179.48;;;;;;;;;;4985268;28;20228;-49
2022/05/15 13:24:59;;;;;;;163.07;147.40;;;;;;;;;;4989580;28;20231;-50
2022/05/15 13:27:26;;;;;;;172.00;154.82;;;;;;;;;;4989462;28;20244;-49
2022/05/15 13:29:52;;;;;;;196.40;176.85;;;;;;;;;;4989078;28;20681;-49
2022/05/15 13:32:19;;;;;;;192.50;173.65;;;;;;;;;;4999833;28;20266;-50
2022/05/15 13:34:47;;;;;;;207.45;186.25;;;;;;;;;;4984037;28;20586;-50
2022/05/15 13:37:31;;;;;;;151.25;136.85;;;;;;;;;;4980137;28;20222;-50
2022/05/15 13:43:22;;;;;;;194.15;145.50;;;;;;;;;;4969350;28;20594;-49
2022/05/15 13:45:47;;;;;;;139.07;124.07;;;;;;;;;;4969681;28;20225;-49
2022/05/15 13:48:13;;;;;;;154.25;134.52;;;;;;;;;;4976812;28;20512;-49
2022/05/15 13:50:44;;;;;;;251.10;185.13;;;;;;;;;;4976652;28;20276;-49
2022/05/15 13:53:16;;;;;;;150.38;134.80;;;;;;;;;;4979021;28;20173;-49
2022/05/15 13:55:42;;;;;;;146.50;132.52;;;;;;;;;;4978632;28;20471;-48
2022/05/15 13:58:08;;;;;;;160.25;144.13;;;;;;;;;;4972337;28;20677;-48
2022/05/15 14:00:35;;;;;;;176.73;157.57;;;;;;;;;;4980436;28;20213;-48
2022/05/15 14:03:11;;;;;;;194.50;174.82;;;;;;;;;;4976919;28;20264;-48
2022/05/15 14:05:42;;;;;;;232.20;201.70;;;;;;;;;;4965350;28;20204;-48
2022/05/15 14:08:12;;;;;;;266.15;226.80;;;;;;;;;;4967181;28;20229;-48
2022/05/15 14:10:38;;;;;;;287.50;256.65;;;;;;;;;;4965086;28;20206;-48
2022/05/15 14:13:05;;;;;;;289.90;261.88;;;;;;;;;;4970325;28;20535;-49
2022/05/15 14:15:40;;;;;;;267.02;241.98;;;;;;;;;;4970359;28;20524;-48
2022/05/15 14:18:27;;;;;;;296.52;269.65;;;;;;;;;;4975730;28;20753;-48
2022/05/15 14:20:53;;;;;;;268.95;243.75;;;;;;;;;;4977098;28;20235;-48
2022/05/15 14:23:23;;;;;;;301.13;274.27;;;;;;;;;;4981422;28;20280;-49
2022/05/15 14:25:49;;;;;;;352.05;318.13;;;;;;;;;;4978287;28;20331;-48
2022/05/15 14:28:16;;;;;;;329.65;297.63;;;;;;;;;;4978176;28;20249;-49
2022/05/15 14:30:43;;;;;;;365.60;330.38;;;;;;;;;;4978566;28;20268;-50
2022/05/15 14:33:10;;;;;;;377.73;343.40;;;;;;;;;;4978162;28;20206;-49
2022/05/15 14:35:44;;;;;;;390.60;352.90;;;;;;;;;;4981526;28;20244;-48
2022/05/15 14:38:10;;;;;;;408.80;370.45;;;;;;;;;;4980158;28;20240;-48
2022/05/15 14:40:36;;;;;;;418.63;381.83;;;;;;;;;;4982064;28;20213;-50